sensor_id;sensor_type;location;lat;lon;timestamp;P1;durP1;ratioP1;P2;durP2;ratioP2
61638;SDS011;47544;52.484;4.658;2023-09-19T00:00:06;3.80;;;1.20;;
61638;SDS011;47544;52.484;4.658;2023-09-19T00:00:18;4.25;;;1.27;;
61638;SDS011;47544;52.484;4.658;2023-09-19T00:00:31;3.85;;;1.08;;
61638;SDS011;47544;52.484;4.658;2023-09-19T00:00:42;3.92;;;0.90;;
61638;SDS011;47544;52.484;4.658;2023-09-19T00:00:57;4.65;;;0.90;;
61638;SDS011;47544;52.484;4.658;2023-09-19T00:01:08;5.38;;;1.17;;
61638;SDS011;47544;52.484;4.658;2023-09-19T00:01:19;5.70;;;1.40;;
61638;SDS011;47544;52.484;4.658;2023-09-19T00:01:33;4.88;;;1.35;;
61638;SDS011;47544;52.484;4.658;2023-09-19T00:01:44;3.58;;;1.20;;
61638;SDS011;47544;52.484;4.658;2023-09-19T00:01:55;4.13;;;1.30;;
61638;SDS011;47544;52.484;4.658;2023-09-19T00:02:09;4.30;;;1.25;;
61638;SDS011;47544;52.484;4.658;2023-09-19T00:02:22;5.05;;;1.40;;
61638;SDS011;47544;52.484;4.658;2023-09-19T00:02:33;5.72;;;1.52;;
61638;SDS011;47544;52.484;4.658;2023-09-19T00:02:45;6.13;;;1.25;;
61638;SDS011;47544;52.484;4.658;2023-09-19T00:02:58;4.88;;;1.17;;
61638;SDS011;47544;52.484;4.658;2023-09-19T00:03:11;4.70;;;1.30;;
61638;SDS011;47544;52.484;4.658;2023-09-19T00:03:23;3.40;;;1.27;;
61638;SDS011;47544;52.484;4.658;2023-09-19T00:03:35;4.60;;;1.40;;
61638;SDS011;47544;52.484;4.658;2023-09-19T00:03:48;5.45;;;1.30;;
61638;SDS011;47544;52.484;4.658;2023-09-19T00:04:00;4.72;;;1.15;;
61638;SDS011;47544;52.484;4.658;2023-09-19T00:04:11;5.90;;;1.20;;
61638;SDS011;47544;52.484;4.658;2023-09-19T00:04:23;7.68;;;1.35;;
61638;SDS011;47544;52.484;4.658;2023-09-19T00:04:39;8.15;;;1.40;;
61638;SDS011;47544;52.484;4.658;2023-09-19T00:04:50;7.20;;;1.30;;
61638;SDS011;47544;52.484;4.658;2023-09-19T00:05:03;6.85;;;1.23;;
61638;SDS011;47544;52.484;4.658;2023-09-19T00:05:15;6.22;;;1.30;;
61638;SDS011;47544;52.484;4.658;2023-09-19T00:05:27;5.97;;;1.27;;
61638;SDS011;47544;52.484;4.658;2023-09-19T00:05:39;4.53;;;1.05;;
61638;SDS011;47544;52.484;4.658;2023-09-19T00:05:50;3.92;;;1.02;;
61638;SDS011;47544;52.484;4.658;2023-09-19T00:06:02;5.07;;;1.13;;
61638;SDS011;47544;52.484;4.658;2023-09-19T00:06:13;6.22;;;1.30;;
61638;SDS011;47544;52.484;4.658;2023-09-19T00:06:29;5.50;;;1.02;;
61638;SDS011;47544;52.484;4.658;2023-09-19T00:06:42;5.95;;;1.10;;
61638;SDS011;47544;52.484;4.658;2023-09-19T00:06:54;7.25;;;1.60;;
61638;SDS011;47544;52.484;4.658;2023-09-19T00:07:06;6.63;;;1.58;;
61638;SDS011;47544;52.484;4.658;2023-09-19T00:07:17;5.38;;;1.30;;
61638;SDS011;47544;52.484;4.658;2023-09-19T00:07:30;5.40;;;1.13;;
61638;SDS011;47544;52.484;4.658;2023-09-19T00:07:41;6.45;;;1.10;;
61638;SDS011;47544;52.484;4.658;2023-09-19T00:07:52;6.60;;;1.30;;
61638;SDS011;47544;52.484;4.658;2023-09-19T00:08:05;7.30;;;1.50;;
61638;SDS011;47544;52.484;4.658;2023-09-19T00:08:18;5.65;;;1.42;;
61638;SDS011;47544;52.484;4.658;2023-09-19T00:08:34;3.35;;;1.00;;
61638;SDS011;47544;52.484;4.658;2023-09-19T00:08:45;2.90;;;1.02;;
61638;SDS011;47544;52.484;4.658;2023-09-19T00:08:57;4.18;;;1.10;;
61638;SDS011;47544;52.484;4.658;2023-09-19T00:09:11;6.03;;;1.30;;
61638;SDS011;47544;52.484;4.658;2023-09-19T00:09:22;5.68;;;1.42;;
61638;SDS011;47544;52.484;4.658;2023-09-19T00:09:36;5.28;;;1.58;;
61638;SDS011;47544;52.484;4.658;2023-09-19T00:09:48;4.00;;;1.15;;
61638;SDS011;47544;52.484;4.658;2023-09-19T00:10:00;5.47;;;1.10;;
61638;SDS011;47544;52.484;4.658;2023-09-19T00:10:11;7.35;;;1.35;;
61638;SDS011;47544;52.484;4.658;2023-09-19T00:10:26;7.43;;;1.45;;
61638;SDS011;47544;52.484;4.658;2023-09-19T00:10:37;6.22;;;1.35;;
61638;SDS011;47544;52.484;4.658;2023-09-19T00:10:50;5.15;;;1.30;;
61638;SDS011;47544;52.484;4.658;2023-09-19T00:11:01;5.15;;;1.33;;
61638;SDS011;47544;52.484;4.658;2023-09-19T00:11:13;6.20;;;1.50;;
61638;SDS011;47544;52.484;4.658;2023-09-19T00:11:24;7.65;;;1.60;;
61638;SDS011;47544;52.484;4.658;2023-09-19T00:11:37;8.05;;;1.75;;
61638;SDS011;47544;52.484;4.658;2023-09-19T00:11:49;6.97;;;1.65;;
61638;SDS011;47544;52.484;4.658;2023-09-19T00:12:00;6.85;;;1.65;;
61638;SDS011;47544;52.484;4.658;2023-09-19T00:12:12;8.07;;;1.52;;
61638;SDS011;47544;52.484;4.658;2023-09-19T00:12:24;7.68;;;1.50;;
61638;SDS011;47544;52.484;4.658;2023-09-19T00:12:35;6.85;;;1.30;;
61638;SDS011;47544;52.484;4.658;2023-09-19T00:12:46;6.47;;;1.30;;
61638;SDS011;47544;52.484;4.658;2023-09-19T00:12:57;5.93;;;1.30;;
61638;SDS011;47544;52.484;4.658;2023-09-19T00:13:09;4.20;;;1.20;;
61638;SDS011;47544;52.484;4.658;2023-09-19T00:13:23;3.22;;;1.00;;
61638;SDS011;47544;52.484;4.658;2023-09-19T00:13:35;3.38;;;1.05;;
61638;SDS011;47544;52.484;4.658;2023-09-19T00:13:47;4.75;;;1.25;;
61638;SDS011;47544;52.484;4.658;2023-09-19T00:14:00;6.80;;;1.65;;
61638;SDS011;47544;52.484;4.658;2023-09-19T00:14:11;6.75;;;1.60;;
61638;SDS011;47544;52.484;4.658;2023-09-19T00:14:24;6.88;;;1.40;;
61638;SDS011;47544;52.484;4.658;2023-09-19T00:14:36;7.60;;;1.40;;
61638;SDS011;47544;52.484;4.658;2023-09-19T00:14:47;6.55;;;1.35;;
61638;SDS011;47544;52.484;4.658;2023-09-19T00:14:58;7.47;;;1.52;;
61638;SDS011;47544;52.484;4.658;2023-09-19T00:15:13;7.53;;;1.67;;
61638;SDS011;47544;52.484;4.658;2023-09-19T00:15:39;6.70;;;1.65;;
61638;SDS011;47544;52.484;4.658;2023-09-19T00:16:10;5.47;;;1.23;;
61638;SDS011;47544;52.484;4.658;2023-09-19T00:16:58;7.60;;;1.50;;
61638;SDS011;47544;52.484;4.658;2023-09-19T00:17:12;6.93;;;1.48;;
61638;SDS011;47544;52.484;4.658;2023-09-19T00:17:33;7.45;;;1.88;;
61638;SDS011;47544;52.484;4.658;2023-09-19T00:17:48;6.15;;;1.92;;
61638;SDS011;47544;52.484;4.658;2023-09-19T00:18:03;6.53;;;1.77;;
61638;SDS011;47544;52.484;4.658;2023-09-19T00:18:17;7.85;;;1.63;;
61638;SDS011;47544;52.484;4.658;2023-09-19T00:18:32;7.85;;;1.50;;
61638;SDS011;47544;52.484;4.658;2023-09-19T00:18:45;5.53;;;1.25;;
61638;SDS011;47544;52.484;4.658;2023-09-19T00:18:57;5.00;;;1.30;;
61638;SDS011;47544;52.484;4.658;2023-09-19T00:19:13;4.90;;;1.20;;
61638;SDS011;47544;52.484;4.658;2023-09-19T00:19:26;4.88;;;1.08;;
61638;SDS011;47544;52.484;4.658;2023-09-19T00:19:37;5.22;;;1.10;;
61638;SDS011;47544;52.484;4.658;2023-09-19T00:19:49;4.93;;;1.10;;
61638;SDS011;47544;52.484;4.658;2023-09-19T00:20:00;5.70;;;1.08;;
61638;SDS011;47544;52.484;4.658;2023-09-19T00:20:17;5.03;;;1.05;;
61638;SDS011;47544;52.484;4.658;2023-09-19T00:20:29;4.93;;;1.13;;
61638;SDS011;47544;52.484;4.658;2023-09-19T00:20:40;5.45;;;1.10;;
61638;SDS011;47544;52.484;4.658;2023-09-19T00:20:52;5.43;;;1.00;;
61638;SDS011;47544;52.484;4.658;2023-09-19T00:21:05;3.67;;;0.80;;
61638;SDS011;47544;52.484;4.658;2023-09-19T00:21:17;4.55;;;1.00;;
61638;SDS011;47544;52.484;4.658;2023-09-19T00:21:31;5.32;;;1.20;;
61638;SDS011;47544;52.484;4.658;2023-09-19T00:21:42;5.72;;;1.23;;
61638;SDS011;47544;52.484;4.658;2023-09-19T00:21:54;4.88;;;1.15;;
61638;SDS011;47544;52.484;4.658;2023-09-19T00:22:05;6.10;;;1.25;;
61638;SDS011;47544;52.484;4.658;2023-09-19T00:22:16;6.57;;;1.30;;
61638;SDS011;47544;52.484;4.658;2023-09-19T00:22:29;6.22;;;1.30;;
61638;SDS011;47544;52.484;4.658;2023-09-19T00:22:40;5.95;;;1.48;;
61638;SDS011;47544;52.484;4.658;2023-09-19T00:22:52;7.22;;;1.70;;
61638;SDS011;47544;52.484;4.658;2023-09-19T00:23:05;9.23;;;1.90;;
61638;SDS011;47544;52.484;4.658;2023-09-19T00:23:19;8.43;;;1.58;;
61638;SDS011;47544;52.484;4.658;2023-09-19T00:23:30;7.68;;;1.42;;
61638;SDS011;47544;52.484;4.658;2023-09-19T00:23:42;6.55;;;1.52;;
61638;SDS011;47544;52.484;4.658;2023-09-19T00:23:53;6.25;;;1.65;;
61638;SDS011;47544;52.484;4.658;2023-09-19T00:24:04;6.60;;;1.40;;
61638;SDS011;47544;52.484;4.658;2023-09-19T00:24:16;7.07;;;1.50;;
61638;SDS011;47544;52.484;4.658;2023-09-19T00:24:29;9.48;;;1.92;;
61638;SDS011;47544;52.484;4.658;2023-09-19T00:24:41;8.57;;;2.00;;
61638;SDS011;47544;52.484;4.658;2023-09-19T00:24:52;7.07;;;1.92;;
61638;SDS011;47544;52.484;4.658;2023-09-19T00:25:05;6.40;;;1.70;;
61638;SDS011;47544;52.484;4.658;2023-09-19T00:25:16;6.95;;;1.60;;
61638;SDS011;47544;52.484;4.658;2023-09-19T00:25:28;5.70;;;1.35;;
61638;SDS011;47544;52.484;4.658;2023-09-19T00:25:39;5.40;;;1.58;;
61638;SDS011;47544;52.484;4.658;2023-09-19T00:25:51;5.63;;;1.50;;
61638;SDS011;47544;52.484;4.658;2023-09-19T00:26:02;7.57;;;1.70;;
61638;SDS011;47544;52.484;4.658;2023-09-19T00:26:14;7.15;;;1.40;;
61638;SDS011;47544;52.484;4.658;2023-09-19T00:26:28;7.18;;;1.40;;
61638;SDS011;47544;52.484;4.658;2023-09-19T00:26:41;6.82;;;1.80;;
61638;SDS011;47544;52.484;4.658;2023-09-19T00:26:52;7.78;;;1.90;;
61638;SDS011;47544;52.484;4.658;2023-09-19T00:27:06;9.18;;;1.75;;
61638;SDS011;47544;52.484;4.658;2023-09-19T00:27:19;10.07;;;1.67;;
61638;SDS011;47544;52.484;4.658;2023-09-19T00:27:30;7.57;;;1.38;;
61638;SDS011;47544;52.484;4.658;2023-09-19T00:27:41;5.68;;;1.30;;
61638;SDS011;47544;52.484;4.658;2023-09-19T00:27:52;4.55;;;1.30;;
61638;SDS011;47544;52.484;4.658;2023-09-19T00:28:05;4.82;;;1.40;;
61638;SDS011;47544;52.484;4.658;2023-09-19T00:28:18;4.18;;;1.20;;
61638;SDS011;47544;52.484;4.658;2023-09-19T00:28:30;4.03;;;1.10;;
61638;SDS011;47544;52.484;4.658;2023-09-19T00:28:42;4.35;;;1.05;;
61638;SDS011;47544;52.484;4.658;2023-09-19T00:28:53;4.65;;;1.13;;
61638;SDS011;47544;52.484;4.658;2023-09-19T00:29:04;5.35;;;1.23;;
61638;SDS011;47544;52.484;4.658;2023-09-19T00:29:15;6.05;;;1.33;;
61638;SDS011;47544;52.484;4.658;2023-09-19T00:29:27;7.28;;;1.75;;
61638;SDS011;47544;52.484;4.658;2023-09-19T00:29:39;9.25;;;2.30;;
61638;SDS011;47544;52.484;4.658;2023-09-19T00:29:50;8.85;;;2.30;;
61638;SDS011;47544;52.484;4.658;2023-09-19T00:30:03;7.97;;;1.70;;
61638;SDS011;47544;52.484;4.658;2023-09-19T00:30:16;7.90;;;1.65;;
61638;SDS011;47544;52.484;4.658;2023-09-19T00:30:30;7.07;;;1.63;;
61638;SDS011;47544;52.484;4.658;2023-09-19T00:30:42;5.32;;;1.40;;
61638;SDS011;47544;52.484;4.658;2023-09-19T00:30:53;5.68;;;1.50;;
61638;SDS011;47544;52.484;4.658;2023-09-19T00:31:08;5.32;;;1.30;;
61638;SDS011;47544;52.484;4.658;2023-09-19T00:31:20;5.28;;;1.23;;
61638;SDS011;47544;52.484;4.658;2023-09-19T00:31:36;7.15;;;1.67;;
61638;SDS011;47544;52.484;4.658;2023-09-19T00:31:48;7.75;;;1.75;;
61638;SDS011;47544;52.484;4.658;2023-09-19T00:32:00;7.55;;;1.33;;
61638;SDS011;47544;52.484;4.658;2023-09-19T00:32:14;5.93;;;1.02;;
61638;SDS011;47544;52.484;4.658;2023-09-19T00:32:26;6.75;;;1.17;;
61638;SDS011;47544;52.484;4.658;2023-09-19T00:32:42;6.85;;;1.30;;
61638;SDS011;47544;52.484;4.658;2023-09-19T00:32:53;6.55;;;1.23;;
61638;SDS011;47544;52.484;4.658;2023-09-19T00:33:05;7.97;;;1.33;;
61638;SDS011;47544;52.484;4.658;2023-09-19T00:33:18;8.05;;;1.33;;
61638;SDS011;47544;52.484;4.658;2023-09-19T00:33:32;6.72;;;1.45;;
61638;SDS011;47544;52.484;4.658;2023-09-19T00:33:44;7.35;;;1.50;;
61638;SDS011;47544;52.484;4.658;2023-09-19T00:33:56;5.78;;;1.30;;
61638;SDS011;47544;52.484;4.658;2023-09-19T00:34:10;4.90;;;0.98;;
61638;SDS011;47544;52.484;4.658;2023-09-19T00:34:21;5.50;;;1.00;;
61638;SDS011;47544;52.484;4.658;2023-09-19T00:34:32;6.60;;;1.02;;
61638;SDS011;47544;52.484;4.658;2023-09-19T00:34:45;6.18;;;1.02;;
61638;SDS011;47544;52.484;4.658;2023-09-19T00:34:56;7.35;;;1.40;;
61638;SDS011;47544;52.484;4.658;2023-09-19T00:35:07;7.45;;;1.83;;
61638;SDS011;47544;52.484;4.658;2023-09-19T00:35:19;7.88;;;1.90;;
61638;SDS011;47544;52.484;4.658;2023-09-19T00:35:30;6.07;;;1.30;;
61638;SDS011;47544;52.484;4.658;2023-09-19T00:35:46;5.75;;;1.27;;
61638;SDS011;47544;52.484;4.658;2023-09-19T00:35:58;5.95;;;1.23;;
61638;SDS011;47544;52.484;4.658;2023-09-19T00:36:10;6.93;;;1.38;;
61638;SDS011;47544;52.484;4.658;2023-09-19T00:36:21;7.70;;;1.55;;
61638;SDS011;47544;52.484;4.658;2023-09-19T00:36:32;7.30;;;1.65;;
61638;SDS011;47544;52.484;4.658;2023-09-19T00:36:44;7.30;;;1.42;;
61638;SDS011;47544;52.484;4.658;2023-09-19T00:36:56;6.55;;;1.23;;
61638;SDS011;47544;52.484;4.658;2023-09-19T00:37:10;4.70;;;1.00;;
61638;SDS011;47544;52.484;4.658;2023-09-19T00:37:21;6.18;;;1.10;;
61638;SDS011;47544;52.484;4.658;2023-09-19T00:37:34;5.80;;;1.10;;
61638;SDS011;47544;52.484;4.658;2023-09-19T00:37:45;5.03;;;1.15;;
61638;SDS011;47544;52.484;4.658;2023-09-19T00:37:56;5.50;;;1.30;;
61638;SDS011;47544;52.484;4.658;2023-09-19T00:38:07;6.15;;;1.40;;
61638;SDS011;47544;52.484;4.658;2023-09-19T00:38:18;6.88;;;1.40;;
61638;SDS011;47544;52.484;4.658;2023-09-19T00:38:32;7.60;;;1.50;;
61638;SDS011;47544;52.484;4.658;2023-09-19T00:38:44;7.18;;;1.55;;
61638;SDS011;47544;52.484;4.658;2023-09-19T00:38:57;6.70;;;1.48;;
61638;SDS011;47544;52.484;4.658;2023-09-19T00:39:08;8.70;;;1.75;;
61638;SDS011;47544;52.484;4.658;2023-09-19T00:39:19;9.13;;;1.83;;
61638;SDS011;47544;52.484;4.658;2023-09-19T00:39:32;6.22;;;1.45;;
61638;SDS011;47544;52.484;4.658;2023-09-19T00:39:43;5.72;;;1.20;;
61638;SDS011;47544;52.484;4.658;2023-09-19T00:39:54;5.32;;;1.27;;
61638;SDS011;47544;52.484;4.658;2023-09-19T00:40:07;5.30;;;1.38;;
61638;SDS011;47544;52.484;4.658;2023-09-19T00:40:22;5.78;;;1.40;;
61638;SDS011;47544;52.484;4.658;2023-09-19T00:40:34;8.45;;;1.67;;
61638;SDS011;47544;52.484;4.658;2023-09-19T00:40:45;9.00;;;1.60;;
61638;SDS011;47544;52.484;4.658;2023-09-19T00:40:57;7.80;;;1.70;;
61638;SDS011;47544;52.484;4.658;2023-09-19T00:41:08;6.57;;;1.63;;
61638;SDS011;47544;52.484;4.658;2023-09-19T00:41:20;6.00;;;1.50;;
61638;SDS011;47544;52.484;4.658;2023-09-19T00:41:31;5.88;;;1.48;;
61638;SDS011;47544;52.484;4.658;2023-09-19T00:41:42;5.07;;;1.30;;
61638;SDS011;47544;52.484;4.658;2023-09-19T00:41:56;4.47;;;1.10;;
61638;SDS011;47544;52.484;4.658;2023-09-19T00:42:07;5.28;;;1.15;;
61638;SDS011;47544;52.484;4.658;2023-09-19T00:42:19;6.68;;;1.80;;
61638;SDS011;47544;52.484;4.658;2023-09-19T00:42:32;6.90;;;1.90;;
61638;SDS011;47544;52.484;4.658;2023-09-19T00:42:47;6.50;;;1.20;;
61638;SDS011;47544;52.484;4.658;2023-09-19T00:42:58;6.63;;;1.15;;
61638;SDS011;47544;52.484;4.658;2023-09-19T00:43:13;6.97;;;1.40;;
61638;SDS011;47544;52.484;4.658;2023-09-19T00:43:24;6.55;;;1.45;;
61638;SDS011;47544;52.484;4.658;2023-09-19T00:43:38;6.82;;;1.40;;
61638;SDS011;47544;52.484;4.658;2023-09-19T00:43:52;8.88;;;1.67;;
61638;SDS011;47544;52.484;4.658;2023-09-19T00:44:03;8.60;;;1.80;;
61638;SDS011;47544;52.484;4.658;2023-09-19T00:44:17;7.63;;;1.70;;
61638;SDS011;47544;52.484;4.658;2023-09-19T00:44:30;6.65;;;1.52;;
61638;SDS011;47544;52.484;4.658;2023-09-19T00:44:41;6.03;;;1.42;;
61638;SDS011;47544;52.484;4.658;2023-09-19T00:44:53;6.65;;;1.35;;
61638;SDS011;47544;52.484;4.658;2023-09-19T00:45:04;6.57;;;1.20;;
61638;SDS011;47544;52.484;4.658;2023-09-19T00:45:16;6.53;;;1.13;;
61638;SDS011;47544;52.484;4.658;2023-09-19T00:45:30;4.45;;;0.90;;
61638;SDS011;47544;52.484;4.658;2023-09-19T00:45:43;3.67;;;1.00;;
61638;SDS011;47544;52.484;4.658;2023-09-19T00:45:55;3.55;;;1.13;;
61638;SDS011;47544;52.484;4.658;2023-09-19T00:46:06;4.00;;;1.17;;
61638;SDS011;47544;52.484;4.658;2023-09-19T00:46:18;4.47;;;1.10;;
61638;SDS011;47544;52.484;4.658;2023-09-19T00:46:29;6.25;;;0.95;;
61638;SDS011;47544;52.484;4.658;2023-09-19T00:46:40;6.70;;;0.82;;
61638;SDS011;47544;52.484;4.658;2023-09-19T00:46:52;6.60;;;1.00;;
61638;SDS011;47544;52.484;4.658;2023-09-19T00:47:03;5.20;;;1.00;;
61638;SDS011;47544;52.484;4.658;2023-09-19T00:47:14;3.30;;;0.80;;
61638;SDS011;47544;52.484;4.658;2023-09-19T00:47:28;3.30;;;0.80;;
61638;SDS011;47544;52.484;4.658;2023-09-19T00:47:43;3.65;;;0.82;;
61638;SDS011;47544;52.484;4.658;2023-09-19T00:47:54;4.68;;;1.02;;
61638;SDS011;47544;52.484;4.658;2023-09-19T00:48:07;5.65;;;0.93;;
61638;SDS011;47544;52.484;4.658;2023-09-19T00:48:19;4.80;;;0.82;;
61638;SDS011;47544;52.484;4.658;2023-09-19T00:48:31;4.47;;;0.85;;
61638;SDS011;47544;52.484;4.658;2023-09-19T00:48:42;3.85;;;0.80;;
61638;SDS011;47544;52.484;4.658;2023-09-19T00:48:54;5.63;;;1.02;;
61638;SDS011;47544;52.484;4.658;2023-09-19T00:49:06;6.50;;;1.25;;
61638;SDS011;47544;52.484;4.658;2023-09-19T00:49:18;7.03;;;1.50;;
61638;SDS011;47544;52.484;4.658;2023-09-19T00:49:33;5.05;;;1.10;;
61638;SDS011;47544;52.484;4.658;2023-09-19T00:49:45;3.83;;;1.05;;
61638;SDS011;47544;52.484;4.658;2023-09-19T00:49:59;5.90;;;1.10;;
61638;SDS011;47544;52.484;4.658;2023-09-19T00:50:11;5.00;;;0.88;;
61638;SDS011;47544;52.484;4.658;2023-09-19T00:50:25;4.18;;;0.88;;
61638;SDS011;47544;52.484;4.658;2023-09-19T00:50:38;4.65;;;0.85;;
61638;SDS011;47544;52.484;4.658;2023-09-19T00:50:52;6.43;;;0.90;;
61638;SDS011;47544;52.484;4.658;2023-09-19T00:51:04;5.43;;;0.95;;
61638;SDS011;47544;52.484;4.658;2023-09-19T00:51:15;3.40;;;0.80;;
61638;SDS011;47544;52.484;4.658;2023-09-19T00:51:32;3.30;;;0.90;;
61638;SDS011;47544;52.484;4.658;2023-09-19T00:51:46;2.00;;;0.80;;
61638;SDS011;47544;52.484;4.658;2023-09-19T00:51:58;2.67;;;0.60;;
61638;SDS011;47544;52.484;4.658;2023-09-19T00:52:10;2.72;;;0.70;;
61638;SDS011;47544;52.484;4.658;2023-09-19T00:52:21;3.45;;;0.80;;
61638;SDS011;47544;52.484;4.658;2023-09-19T00:52:34;4.40;;;0.90;;
61638;SDS011;47544;52.484;4.658;2023-09-19T00:52:47;5.47;;;0.98;;
61638;SDS011;47544;52.484;4.658;2023-09-19T00:53:00;4.00;;;0.70;;
61638;SDS011;47544;52.484;4.658;2023-09-19T00:53:24;5.13;;;0.93;;
61638;SDS011;47544;52.484;4.658;2023-09-19T00:53:36;6.55;;;1.05;;
61638;SDS011;47544;52.484;4.658;2023-09-19T00:53:47;6.50;;;0.95;;
61638;SDS011;47544;52.484;4.658;2023-09-19T00:53:58;4.88;;;0.85;;
61638;SDS011;47544;52.484;4.658;2023-09-19T00:54:10;4.10;;;0.80;;
61638;SDS011;47544;52.484;4.658;2023-09-19T00:54:28;3.70;;;0.90;;
61638;SDS011;47544;52.484;4.658;2023-09-19T00:54:40;3.92;;;1.02;;
61638;SDS011;47544;52.484;4.658;2023-09-19T00:54:51;3.15;;;1.13;;
61638;SDS011;47544;52.484;4.658;2023-09-19T00:55:03;3.45;;;1.08;;
61638;SDS011;47544;52.484;4.658;2023-09-19T00:55:16;5.68;;;1.38;;
61638;SDS011;47544;52.484;4.658;2023-09-19T00:55:30;4.90;;;1.13;;
61638;SDS011;47544;52.484;4.658;2023-09-19T00:55:43;3.22;;;0.80;;
61638;SDS011;47544;52.484;4.658;2023-09-19T00:55:55;3.65;;;0.93;;
61638;SDS011;47544;52.484;4.658;2023-09-19T00:56:06;4.13;;;1.00;;
61638;SDS011;47544;52.484;4.658;2023-09-19T00:56:17;4.70;;;1.00;;
61638;SDS011;47544;52.484;4.658;2023-09-19T00:56:29;4.43;;;0.95;;
61638;SDS011;47544;52.484;4.658;2023-09-19T00:56:40;5.43;;;1.08;;
61638;SDS011;47544;52.484;4.658;2023-09-19T00:56:53;4.55;;;1.10;;
61638;SDS011;47544;52.484;4.658;2023-09-19T00:57:06;3.88;;;1.00;;
61638;SDS011;47544;52.484;4.658;2023-09-19T00:57:18;4.28;;;1.17;;
61638;SDS011;47544;52.484;4.658;2023-09-19T00:57:33;6.10;;;1.40;;
61638;SDS011;47544;52.484;4.658;2023-09-19T00:57:44;5.90;;;1.30;;
61638;SDS011;47544;52.484;4.658;2023-09-19T00:57:56;5.68;;;1.38;;
61638;SDS011;47544;52.484;4.658;2023-09-19T00:58:07;7.45;;;1.65;;
61638;SDS011;47544;52.484;4.658;2023-09-19T00:58:19;7.93;;;1.77;;
61638;SDS011;47544;52.484;4.658;2023-09-19T00:58:32;7.68;;;1.73;;
61638;SDS011;47544;52.484;4.658;2023-09-19T00:58:44;8.02;;;1.50;;
61638;SDS011;47544;52.484;4.658;2023-09-19T00:58:56;7.75;;;1.33;;
61638;SDS011;47544;52.484;4.658;2023-09-19T00:59:08;6.18;;;1.20;;
61638;SDS011;47544;52.484;4.658;2023-09-19T00:59:20;5.50;;;1.10;;
61638;SDS011;47544;52.484;4.658;2023-09-19T00:59:33;4.68;;;0.90;;
61638;SDS011;47544;52.484;4.658;2023-09-19T00:59:51;4.13;;;1.00;;
61638;SDS011;47544;52.484;4.658;2023-09-19T01:00:05;3.72;;;1.10;;
61638;SDS011;47544;52.484;4.658;2023-09-19T01:00:17;2.92;;;1.00;;
61638;SDS011;47544;52.484;4.658;2023-09-19T01:00:30;3.00;;;1.13;;
61638;SDS011;47544;52.484;4.658;2023-09-19T01:00:47;4.80;;;1.20;;
61638;SDS011;47544;52.484;4.658;2023-09-19T01:00:58;4.40;;;1.00;;
61638;SDS011;47544;52.484;4.658;2023-09-19T01:01:10;4.47;;;1.10;;
61638;SDS011;47544;52.484;4.658;2023-09-19T01:01:22;4.03;;;1.00;;
61638;SDS011;47544;52.484;4.658;2023-09-19T01:01:33;4.53;;;1.00;;
61638;SDS011;47544;52.484;4.658;2023-09-19T01:01:45;4.70;;;1.00;;
61638;SDS011;47544;52.484;4.658;2023-09-19T01:01:56;5.10;;;1.10;;
61638;SDS011;47544;52.484;4.658;2023-09-19T01:02:08;6.13;;;1.00;;
61638;SDS011;47544;52.484;4.658;2023-09-19T01:02:19;7.32;;;1.00;;
61638;SDS011;47544;52.484;4.658;2023-09-19T01:02:30;7.97;;;1.20;;
61638;SDS011;47544;52.484;4.658;2023-09-19T01:02:42;7.47;;;1.48;;
61638;SDS011;47544;52.484;4.658;2023-09-19T01:02:54;6.90;;;1.48;;
61638;SDS011;47544;52.484;4.658;2023-09-19T01:03:06;7.47;;;1.60;;
61638;SDS011;47544;52.484;4.658;2023-09-19T01:03:20;8.75;;;1.70;;
61638;SDS011;47544;52.484;4.658;2023-09-19T01:03:32;8.38;;;1.70;;
61638;SDS011;47544;52.484;4.658;2023-09-19T01:03:44;7.05;;;1.83;;
61638;SDS011;47544;52.484;4.658;2023-09-19T01:03:55;6.20;;;1.70;;
61638;SDS011;47544;52.484;4.658;2023-09-19T01:04:06;8.02;;;1.83;;
61638;SDS011;47544;52.484;4.658;2023-09-19T01:04:18;10.38;;;1.70;;
61638;SDS011;47544;52.484;4.658;2023-09-19T01:04:29;11.18;;;1.80;;
61638;SDS011;47544;52.484;4.658;2023-09-19T01:04:41;10.68;;;2.03;;
61638;SDS011;47544;52.484;4.658;2023-09-19T01:04:53;9.32;;;2.30;;
61638;SDS011;47544;52.484;4.658;2023-09-19T01:05:05;8.07;;;2.42;;
61638;SDS011;47544;52.484;4.658;2023-09-19T01:05:18;6.53;;;2.08;;
61638;SDS011;47544;52.484;4.658;2023-09-19T01:05:29;6.28;;;1.73;;
61638;SDS011;47544;52.484;4.658;2023-09-19T01:05:40;6.90;;;2.05;;
61638;SDS011;47544;52.484;4.658;2023-09-19T01:05:51;6.43;;;2.10;;
61638;SDS011;47544;52.484;4.658;2023-09-19T01:06:03;7.88;;;2.28;;
61638;SDS011;47544;52.484;4.658;2023-09-19T01:06:14;8.27;;;2.30;;
61638;SDS011;47544;52.484;4.658;2023-09-19T01:06:25;8.63;;;2.35;;
61638;SDS011;47544;52.484;4.658;2023-09-19T01:06:37;7.53;;;2.03;;
61638;SDS011;47544;52.484;4.658;2023-09-19T01:06:50;7.78;;;1.92;;
61638;SDS011;47544;52.484;4.658;2023-09-19T01:07:03;8.45;;;2.10;;
61638;SDS011;47544;52.484;4.658;2023-09-19T01:07:17;6.65;;;2.00;;
61638;SDS011;47544;52.484;4.658;2023-09-19T01:07:28;5.90;;;1.90;;
61638;SDS011;47544;52.484;4.658;2023-09-19T01:07:41;4.78;;;1.42;;
61638;SDS011;47544;52.484;4.658;2023-09-19T01:07:52;6.70;;;1.65;;
61638;SDS011;47544;52.484;4.658;2023-09-19T01:08:04;11.23;;;2.38;;
61638;SDS011;47544;52.484;4.658;2023-09-19T01:08:15;13.25;;;2.65;;
61638;SDS011;47544;52.484;4.658;2023-09-19T01:08:30;11.63;;;2.47;;
61638;SDS011;47544;52.484;4.658;2023-09-19T01:08:42;8.30;;;1.98;;
61638;SDS011;47544;52.484;4.658;2023-09-19T01:08:53;7.95;;;1.70;;
61638;SDS011;47544;52.484;4.658;2023-09-19T01:09:06;9.23;;;1.65;;
61638;SDS011;47544;52.484;4.658;2023-09-19T01:09:18;7.43;;;1.60;;
61638;SDS011;47544;52.484;4.658;2023-09-19T01:09:32;5.82;;;1.40;;
61638;SDS011;47544;52.484;4.658;2023-09-19T01:09:45;5.75;;;1.42;;
61638;SDS011;47544;52.484;4.658;2023-09-19T01:09:56;7.63;;;1.80;;
61638;SDS011;47544;52.484;4.658;2023-09-19T01:10:12;7.45;;;1.70;;
61638;SDS011;47544;52.484;4.658;2023-09-19T01:10:24;6.97;;;1.60;;
61638;SDS011;47544;52.484;4.658;2023-09-19T01:10:37;9.13;;;1.88;;
61638;SDS011;47544;52.484;4.658;2023-09-19T01:10:51;8.90;;;1.73;;
61638;SDS011;47544;52.484;4.658;2023-09-19T01:11:06;9.55;;;1.90;;
61638;SDS011;47544;52.484;4.658;2023-09-19T01:11:20;11.60;;;2.50;;
61638;SDS011;47544;52.484;4.658;2023-09-19T01:11:33;10.38;;;2.35;;
61638;SDS011;47544;52.484;4.658;2023-09-19T01:11:47;8.38;;;1.67;;
61638;SDS011;47544;52.484;4.658;2023-09-19T01:12:00;7.90;;;1.50;;
61638;SDS011;47544;52.484;4.658;2023-09-19T01:12:12;8.77;;;1.67;;
61638;SDS011;47544;52.484;4.658;2023-09-19T01:12:32;9.40;;;2.20;;
61638;SDS011;47544;52.484;4.658;2023-09-19T01:12:47;10.02;;;2.10;;
61638;SDS011;47544;52.484;4.658;2023-09-19T01:13:01;8.63;;;1.80;;
61638;SDS011;47544;52.484;4.658;2023-09-19T01:13:18;6.80;;;1.60;;
61638;SDS011;47544;52.484;4.658;2023-09-19T01:13:34;6.47;;;1.45;;
61638;SDS011;47544;52.484;4.658;2023-09-19T01:13:55;5.95;;;1.67;;
61638;SDS011;47544;52.484;4.658;2023-09-19T01:14:13;7.07;;;1.73;;
61638;SDS011;47544;52.484;4.658;2023-09-19T01:14:27;7.18;;;1.70;;
61638;SDS011;47544;52.484;4.658;2023-09-19T01:14:41;6.47;;;1.55;;
61638;SDS011;47544;52.484;4.658;2023-09-19T01:14:54;7.90;;;1.52;;
61638;SDS011;47544;52.484;4.658;2023-09-19T01:15:11;8.90;;;1.70;;
61638;SDS011;47544;52.484;4.658;2023-09-19T01:15:28;8.15;;;1.40;;
61638;SDS011;47544;52.484;4.658;2023-09-19T01:15:45;9.23;;;1.50;;
61638;SDS011;47544;52.484;4.658;2023-09-19T01:16:03;8.02;;;1.38;;
61638;SDS011;47544;52.484;4.658;2023-09-19T01:16:19;8.02;;;1.65;;
61638;SDS011;47544;52.484;4.658;2023-09-19T01:16:32;7.68;;;1.58;;
61638;SDS011;47544;52.484;4.658;2023-09-19T01:16:48;7.70;;;1.58;;
61638;SDS011;47544;52.484;4.658;2023-09-19T01:17:03;10.90;;;1.83;;